Time;durP1;ratioP1;P1;durP2;ratioP2;P2;SDS_P1;SDS_P2;PMS_P1;PMS_P2;Temp;Humidity;BMP_temperature;BMP_pressure;BME280_temperature;BME280_humidity;BME280_pressure;Samples;Min_cycle;Max_cycle;Signal;HPM_P1;HPM_P2
2021/08/03 00:00:21;;;;;;;5.03;3.60;;;;;;;;;;5022093;28;20784;-64
2021/08/03 00:02:50;;;;;;;7.38;4.15;;;;;;;;;;5033358;28;20032;-63
2021/08/03 00:05:19;;;;;;;7.95;4.32;;;;;;;;;;5033243;28;20036;-64
2021/08/03 00:07:46;;;;;;;6.90;4.38;;;;;;;;;;5015011;28;20052;-64
2021/08/03 00:10:17;;;;;;;8.27;4.30;;;;;;;;;;5034051;28;20030;-64
2021/08/03 00:12:52;;;;;;;11.25;4.32;;;;;;;;;;5032427;28;20033;-65
2021/08/03 00:15:22;;;;;;;9.45;4.72;;;;;;;;;;5032871;28;20083;-65
2021/08/03 00:17:51;;;;;;;8.00;5.13;;;;;;;;;;5035017;28;20029;-65
2021/08/03 00:20:16;;;;;;;6.50;5.13;;;;;;;;;;5027365;28;20114;-64
2021/08/03 00:22:42;;;;;;;6.32;3.97;;;;;;;;;;5034459;28;20812;-63
2021/08/03 00:25:11;;;;;;;5.35;3.70;;;;;;;;;;5033651;28;20017;-64
2021/08/03 00:27:36;;;;;;;7.80;4.50;;;;;;;;;;5035497;28;20037;-65
2021/08/03 00:30:02;;;;;;;8.85;4.22;;;;;;;;;;5016571;28;20096;-63
2021/08/03 00:32:28;;;;;;;7.75;4.10;;;;;;;;;;5028921;28;20501;-65
2021/08/03 00:34:54;;;;;;;10.05;4.45;;;;;;;;;;5032532;28;20053;-63
2021/08/03 00:37:19;;;;;;;5.13;3.67;;;;;;;;;;5033390;28;20428;-63
2021/08/03 00:39:44;;;;;;;8.57;3.97;;;;;;;;;;5031654;28;20072;-64
2021/08/03 00:42:10;;;;;;;7.07;4.43;;;;;;;;;;5033297;28;20116;-63
2021/08/03 00:44:39;;;;;;;5.63;4.00;;;;;;;;;;5031126;28;20029;-65
2021/08/03 00:47:05;;;;;;;8.20;4.55;;;;;;;;;;5031629;28;20108;-64
2021/08/03 00:49:31;;;;;;;7.13;4.70;;;;;;;;;;5032542;28;20100;-63
2021/08/03 00:51:56;;;;;;;6.35;4.70;;;;;;;;;;5032022;28;20116;-64
2021/08/03 00:54:21;;;;;;;7.63;5.22;;;;;;;;;;5014200;28;20071;-64
2021/08/03 00:56:47;;;;;;;8.23;6.13;;;;;;;;;;5031770;28;20083;-63
2021/08/03 00:59:12;;;;;;;13.07;6.78;;;;;;;;;;5017955;28;20032;-64
2021/08/03 01:01:38;;;;;;;12.75;6.25;;;;;;;;;;5033203;28;20033;-65
2021/08/03 01:04:05;;;;;;;8.65;6.60;;;;;;;;;;5032114;28;20023;-64
2021/08/03 01:06:43;;;;;;;9.73;5.97;;;;;;;;;;5032402;28;20059;-64
2021/08/03 01:09:19;;;;;;;17.27;6.55;;;;;;;;;;5030751;28;20040;-64
2021/08/03 01:12:05;;;;;;;8.15;6.25;;;;;;;;;;5014355;28;20026;-63
2021/08/03 01:14:39;;;;;;;8.27;6.22;;;;;;;;;;5033420;28;20024;-64
2021/08/03 01:17:15;;;;;;;7.47;5.72;;;;;;;;;;5031235;28;20028;-64
2021/08/03 01:20:03;;;;;;;9.37;6.33;;;;;;;;;;5032714;28;20021;-63
2021/08/03 01:23:02;;;;;;;9.48;6.20;;;;;;;;;;5024375;28;20044;-63
2021/08/03 01:25:55;;;;;;;13.32;7.88;;;;;;;;;;5032643;28;20030;-64
2021/08/03 01:28:45;;;;;;;14.43;9.35;;;;;;;;;;3989134;28;10000461;-63
2021/08/03 01:31:25;;;;;;;15.65;9.70;;;;;;;;;;5020220;28;20037;-62
2021/08/03 01:34:03;;;;;;;15.18;9.95;;;;;;;;;;5031221;28;20080;-64
2021/08/03 01:36:30;;;;;;;13.80;9.27;;;;;;;;;;5034992;28;20051;-63
2021/08/03 01:38:56;;;;;;;16.75;10.52;;;;;;;;;;5032869;28;20029;-64
2021/08/03 01:41:24;;;;;;;17.63;11.13;;;;;;;;;;5031185;28;20072;-64
2021/08/03 01:43:50;;;;;;;15.95;10.52;;;;;;;;;;4998474;28;20025;-63
2021/08/03 01:46:17;;;;;;;18.52;10.95;;;;;;;;;;5032401;28;20470;-63
2021/08/03 01:48:44;;;;;;;;;;;;;;;;;;5031340;28;20045;-64
2021/08/03 01:51:10;;;;;;;16.25;10.43;;;;;;;;;;5032489;28;20004;-65
2021/08/03 01:53:36;;;;;;;15.82;9.57;;;;;;;;;;5013448;28;20117;-62
2021/08/03 01:56:01;;;;;;;12.10;7.22;;;;;;;;;;5023857;28;20029;-64
2021/08/03 01:58:28;;;;;;;11.07;7.93;;;;;;;;;;5026405;28;20108;-64
2021/08/03 02:00:56;;;;;;;13.48;6.88;;;;;;;;;;5031617;28;20450;-63
2021/08/03 02:03:24;;;;;;;13.73;6.75;;;;;;;;;;5031991;28;20021;-65
2021/08/03 02:05:50;;;;;;;10.40;7.18;;;;;;;;;;5030116;28;20029;-63
2021/08/03 02:08:18;;;;;;;9.30;7.10;;;;;;;;;;5022654;28;20475;-63
2021/08/03 02:10:44;;;;;;;11.13;7.60;;;;;;;;;;5029612;28;20025;-62
2021/08/03 02:13:10;;;;;;;11.05;8.07;;;;;;;;;;5034837;28;20765;-64
2021/08/03 02:15:37;;;;;;;11.88;7.53;;;;;;;;;;5030942;28;20124;-63
2021/08/03 02:18:02;;;;;;;12.25;8.38;;;;;;;;;;5031294;28;20163;-65
2021/08/03 02:20:28;;;;;;;12.63;7.28;;;;;;;;;;5032155;28;20120;-64
2021/08/03 02:22:53;;;;;;;10.88;6.78;;;;;;;;;;5031812;28;20029;-64
2021/08/03 02:25:18;;;;;;;9.18;7.22;;;;;;;;;;5031923;28;20031;-63
2021/08/03 02:27:44;;;;;;;11.48;9.00;;;;;;;;;;5031928;28;20061;-64
2021/08/03 02:30:11;;;;;;;12.75;9.38;;;;;;;;;;5030591;28;20378;-65
2021/08/03 02:33:14;;;;;;;13.50;9.77;;;;;;;;;;5016298;28;20041;-62
2021/08/03 02:35:47;;;;;;;16.23;10.23;;;;;;;;;;5013001;28;20502;-62
2021/08/03 02:38:17;;;;;;;10.90;8.18;;;;;;;;;;5030887;28;20044;-63
2021/08/03 02:40:43;;;;;;;11.18;8.15;;;;;;;;;;5031485;28;20029;-62
2021/08/03 02:43:13;;;;;;;16.67;9.57;;;;;;;;;;5013390;28;20457;-64
2021/08/03 02:45:40;;;;;;;12.82;9.68;;;;;;;;;;5030728;28;20027;-65
2021/08/03 02:48:11;;;;;;;15.95;10.13;;;;;;;;;;5032020;28;20378;-64
2021/08/03 02:50:37;;;;;;;17.73;10.40;;;;;;;;;;5029511;28;20018;-63
2021/08/03 02:53:08;;;;;;;17.63;10.70;;;;;;;;;;5014293;28;20036;-64
2021/08/03 02:55:48;;;;;;;15.23;9.82;;;;;;;;;;5013013;28;20033;-64
2021/08/03 02:58:19;;;;;;;12.60;9.20;;;;;;;;;;5031418;28;20041;-63
2021/08/03 03:00:46;;;;;;;15.00;10.35;;;;;;;;;;5029439;28;20029;-64
2021/08/03 03:03:16;;;;;;;15.65;9.60;;;;;;;;;;5013916;28;20033;-63
2021/08/03 03:05:44;;;;;;;16.60;10.35;;;;;;;;;;5021316;28;20025;-63
2021/08/03 03:08:16;;;;;;;12.18;8.55;;;;;;;;;;5025216;28;20025;-63
2021/08/03 03:10:47;;;;;;;15.00;9.70;;;;;;;;;;5012665;28;20052;-62
2021/08/03 03:13:22;;;;;;;12.93;8.95;;;;;;;;;;5029566;28;20027;-63
2021/08/03 03:15:48;;;;;;;17.48;10.15;;;;;;;;;;5028934;28;20386;-63
2021/08/03 03:18:15;;;;;;;15.52;9.55;;;;;;;;;;5029886;28;20071;-63
2021/08/03 03:20:41;;;;;;;13.98;9.23;;;;;;;;;;5029749;28;20721;-65
2021/08/03 03:23:07;;;;;;;13.25;8.88;;;;;;;;;;5032502;28;20048;-63
2021/08/03 03:25:32;;;;;;;16.90;9.57;;;;;;;;;;5012981;28;20108;-64
2021/08/03 03:28:02;;;;;;;10.95;8.63;;;;;;;;;;5033190;28;20440;-63
2021/08/03 03:30:28;;;;;;;10.25;8.13;;;;;;;;;;5030059;28;20079;-63
2021/08/03 03:32:55;;;;;;;12.73;8.60;;;;;;;;;;5031344;28;20033;-64
2021/08/03 03:35:22;;;;;;;14.90;8.07;;;;;;;;;;5029812;28;20052;-65
2021/08/03 03:37:49;;;;;;;12.90;8.85;;;;;;;;;;5031504;28;20488;-63
2021/08/03 03:40:18;;;;;;;10.10;7.95;;;;;;;;;;5029571;28;20037;-63
2021/08/03 03:42:46;;;;;;;11.13;8.18;;;;;;;;;;5016122;28;20029;-63
2021/08/03 03:45:12;;;;;;;10.98;8.13;;;;;;;;;;4992493;28;20061;-62
2021/08/03 03:47:41;;;;;;;11.75;8.05;;;;;;;;;;5010923;28;20110;-64
2021/08/03 03:50:19;;;;;;;16.83;8.73;;;;;;;;;;5010381;28;20108;-63
2021/08/03 03:52:53;;;;;;;13.05;8.38;;;;;;;;;;5009618;28;20049;-63
2021/08/03 03:55:21;;;;;;;12.45;8.55;;;;;;;;;;5010353;28;20029;-65
2021/08/03 03:57:48;;;;;;;13.20;8.68;;;;;;;;;;5009839;28;20038;-63
2021/08/03 04:00:15;;;;;;;11.15;8.40;;;;;;;;;;5010490;28;20030;-65
2021/08/03 04:02:42;;;;;;;10.80;8.57;;;;;;;;;;5010118;28;20489;-64
2021/08/03 04:05:11;;;;;;;;;;;;;;;;;;5005921;28;20029;-65
2021/08/03 04:07:37;;;;;;;13.10;8.80;;;;;;;;;;5015871;28;20054;-64
2021/08/03 04:10:10;;;;;;;10.93;8.57;;;;;;;;;;5029092;28;20104;-65
2021/08/03 04:12:35;;;;;;;13.13;8.25;;;;;;;;;;5030234;28;20062;-64
2021/08/03 04:15:03;;;;;;;15.85;8.98;;;;;;;;;;5029399;28;20132;-64
2021/08/03 04:17:28;;;;;;;13.02;8.52;;;;;;;;;;5030947;28;20032;-64
2021/08/03 04:19:54;;;;;;;13.75;9.25;;;;;;;;;;5012547;28;20025;-65
2021/08/03 04:22:19;;;;;;;12.20;7.70;;;;;;;;;;5032543;28;20029;-63
2021/08/03 04:24:45;;;;;;;13.15;9.18;;;;;;;;;;5015491;28;20083;-64
2021/08/03 04:27:10;;;;;;;14.00;8.98;;;;;;;;;;5034673;28;20029;-63
2021/08/03 04:29:36;;;;;;;11.57;9.30;;;;;;;;;;5033200;28;20040;-64
2021/08/03 04:32:02;;;;;;;13.40;9.70;;;;;;;;;;5034834;28;20033;-64
2021/08/03 04:34:27;;;;;;;15.50;9.60;;;;;;;;;;5035909;28;20049;-63
2021/08/03 04:36:52;;;;;;;16.42;10.20;;;;;;;;;;5032314;28;20033;-65
2021/08/03 04:39:19;;;;;;;14.85;10.73;;;;;;;;;;5033276;28;20136;-65
2021/08/03 04:41:44;;;;;;;16.85;10.30;;;;;;;;;;5025526;28;20613;-64
2021/08/03 04:44:10;;;;;;;15.70;10.65;;;;;;;;;;5017983;28;20026;-64
2021/08/03 04:46:35;;;;;;;15.75;10.20;;;;;;;;;;4996094;28;20541;-63
2021/08/03 04:49:01;;;;;;;13.32;9.40;;;;;;;;;;5018808;28;20028;-65
2021/08/03 04:51:26;;;;;;;12.50;9.55;;;;;;;;;;5033126;28;20041;-65
2021/08/03 04:53:51;;;;;;;11.10;8.68;;;;;;;;;;5032253;28;20140;-64
2021/08/03 04:56:17;;;;;;;12.05;9.25;;;;;;;;;;5033345;28;20378;-64
2021/08/03 04:58:42;;;;;;;12.45;9.95;;;;;;;;;;5034328;28;20025;-63
2021/08/03 05:01:07;;;;;;;16.20;9.98;;;;;;;;;;5028025;28;20375;-66
2021/08/03 05:03:33;;;;;;;15.80;9.82;;;;;;;;;;5033028;28;20124;-64
2021/08/03 05:05:59;;;;;;;11.07;8.05;;;;;;;;;;5032849;28;20498;-65
2021/08/03 05:08:25;;;;;;;12.15;7.75;;;;;;;;;;5033739;28;20064;-64
2021/08/03 05:10:50;;;;;;;11.25;7.32;;;;;;;;;;5032653;28;20053;-65
2021/08/03 05:13:16;;;;;;;13.40;7.75;;;;;;;;;;5031979;28;20068;-64
2021/08/03 05:15:41;;;;;;;10.27;7.38;;;;;;;;;;5032581;28;20572;-66
2021/08/03 05:18:07;;;;;;;8.82;7.25;;;;;;;;;;5032830;28;20032;-64
2021/08/03 05:20:32;;;;;;;12.02;7.88;;;;;;;;;;5036055;28;20475;-63
2021/08/03 05:22:57;;;;;;;10.10;7.53;;;;;;;;;;5033737;28;20033;-64
2021/08/03 05:25:23;;;;;;;8.02;7.00;;;;;;;;;;5033649;28;20025;-63
2021/08/03 05:27:48;;;;;;;12.18;7.45;;;;;;;;;;5033222;28;20531;-66
2021/08/03 05:30:14;;;;;;;14.63;8.10;;;;;;;;;;5032646;28;20116;-66
2021/08/03 05:32:41;;;;;;;10.65;7.38;;;;;;;;;;5032805;28;20036;-66
2021/08/03 05:35:08;;;;;;;11.57;7.07;;;;;;;;;;5013426;28;20046;-65
2021/08/03 05:37:33;;;;;;;11.05;7.82;;;;;;;;;;5034160;28;20063;-63
2021/08/03 05:40:02;;;;;;;9.68;7.28;;;;;;;;;;5032412;28;20441;-64
2021/08/03 05:42:27;;;;;;;8.73;7.47;;;;;;;;;;5032495;28;20036;-64
2021/08/03 05:44:53;;;;;;;11.52;7.65;;;;;;;;;;5031749;28;20025;-65
2021/08/03 05:47:18;;;;;;;13.07;7.63;;;;;;;;;;5031698;28;20386;-64
2021/08/03 05:49:43;;;;;;;9.82;7.22;;;;;;;;;;5029790;28;20091;-65
2021/08/03 05:52:09;;;;;;;10.15;7.20;;;;;;;;;;5032585;28;20395;-65
2021/08/03 05:54:34;;;;;;;10.00;6.93;;;;;;;;;;5030211;28;20056;-65
2021/08/03 05:57:00;;;;;;;10.05;7.53;;;;;;;;;;5031603;28;20501;-64
2021/08/03 05:59:25;;;;;;;9.57;7.38;;;;;;;;;;5029134;28;20114;-65
2021/08/03 06:01:50;;;;;;;8.13;7.22;;;;;;;;;;5017804;28;20360;-63
2021/08/03 06:04:16;;;;;;;8.38;6.93;;;;;;;;;;4996650;28;20017;-64
2021/08/03 06:06:43;;;;;;;12.27;7.18;;;;;;;;;;4993884;28;20549;-66
2021/08/03 06:09:10;;;;;;;9.88;6.90;;;;;;;;;;5017664;28;20113;-65
2021/08/03 06:11:42;;;;;;;10.95;6.50;;;;;;;;;;5012372;28;20037;-67
2021/08/03 06:14:09;;;;;;;7.93;5.50;;;;;;;;;;5011186;28;20472;-65
2021/08/03 06:16:35;;;;;;;7.57;5.45;;;;;;;;;;5018294;28;20025;-64
2021/08/03 06:19:04;;;;;;;8.52;5.80;;;;;;;;;;5032389;28;20108;-66
2021/08/03 06:21:30;;;;;;;6.80;5.22;;;;;;;;;;5032319;28;20055;-65
2021/08/03 06:23:56;;;;;;;7.78;5.38;;;;;;;;;;5032339;28;20438;-65
2021/08/03 06:26:21;;;;;;;7.05;5.00;;;;;;;;;;5030637;28;20067;-65
2021/08/03 06:28:52;;;;;;;6.32;5.07;;;;;;;;;;5031971;28;20103;-67
2021/08/03 06:31:18;;;;;;;5.80;4.88;;;;;;;;;;5033199;28;20032;-64
2021/08/03 06:33:46;;;;;;;7.13;5.57;;;;;;;;;;5014030;28;20049;-64
2021/08/03 06:36:12;;;;;;;8.38;5.57;;;;;;;;;;5013480;28;20123;-62
2021/08/03 06:38:37;;;;;;;7.82;5.93;;;;;;;;;;5013696;28;20124;-65
2021/08/03 06:41:04;;;;;;;7.22;5.70;;;;;;;;;;5016473;28;20021;-63
2021/08/03 06:43:31;;;;;;;8.35;6.25;;;;;;;;;;5031528;28;20033;-65
2021/08/03 06:46:04;;;;;;;;;;;;;;;;;;5024104;28;20087;-64
2021/08/03 06:48:34;;;;;;;8.43;5.20;;;;;;;;;;5018706;28;19917;-64
2021/08/03 06:51:02;;;;;;;7.32;5.88;;;;;;;;;;5019613;28;20497;-64
2021/08/03 06:53:29;;;;;;;11.85;6.15;;;;;;;;;;5012880;28;20022;-65
2021/08/03 06:55:56;;;;;;;7.57;5.95;;;;;;;;;;5000777;28;20041;-65
2021/08/03 06:58:40;;;;;;;9.77;5.85;;;;;;;;;;4995664;28;20479;-64
2021/08/03 07:01:15;;;;;;;7.70;5.13;;;;;;;;;;5009915;28;20042;-65
2021/08/03 07:03:48;;;;;;;6.95;4.80;;;;;;;;;;5018794;28;20112;-64
2021/08/03 07:06:17;;;;;;;7.65;5.32;;;;;;;;;;5022814;28;20018;-65
2021/08/03 07:08:43;;;;;;;7.70;5.70;;;;;;;;;;5024403;28;20076;-66
2021/08/03 07:11:09;;;;;;;7.88;5.70;;;;;;;;;;5004819;28;20025;-64
2021/08/03 07:13:37;;;;;;;7.85;6.13;;;;;;;;;;5018913;28;20030;-64
2021/08/03 07:16:03;;;;;;;8.70;6.07;;;;;;;;;;5006147;28;20033;-65
2021/08/03 07:18:29;;;;;;;12.00;6.72;;;;;;;;;;5027823;28;20155;-65
2021/08/03 07:20:56;;;;;;;8.68;6.57;;;;;;;;;;5020454;28;20497;-65
2021/08/03 07:23:22;;;;;;;8.52;6.28;;;;;;;;;;5019498;28;20030;-65
2021/08/03 07:25:50;;;;;;;11.98;6.63;;;;;;;;;;5016576;28;20030;-66
2021/08/03 07:28:17;;;;;;;7.50;6.40;;;;;;;;;;5010001;28;20046;-66
2021/08/03 07:30:42;;;;;;;9.18;5.90;;;;;;;;;;5016390;28;20030;-64
2021/08/03 07:33:12;;;;;;;9.88;6.55;;;;;;;;;;5020551;28;20030;-65
2021/08/03 07:35:40;;;;;;;10.82;7.05;;;;;;;;;;5016075;28;20120;-66
2021/08/03 07:38:05;;;;;;;10.02;6.43;;;;;;;;;;5015388;28;20072;-66
2021/08/03 07:40:31;;;;;;;12.45;7.68;;;;;;;;;;5023265;28;20026;-67
2021/08/03 07:42:56;;;;;;;15.63;7.95;;;;;;;;;;5029898;28;20033;-66
2021/08/03 07:45:22;;;;;;;10.40;7.45;;;;;;;;;;5009469;28;20040;-66
2021/08/03 07:47:47;;;;;;;12.77;7.32;;;;;;;;;;4997976;28;20101;-66
2021/08/03 07:50:14;;;;;;;11.48;7.82;;;;;;;;;;5020956;28;20041;-66
2021/08/03 07:52:39;;;;;;;10.60;7.45;;;;;;;;;;5016633;28;20083;-67
2021/08/03 07:55:05;;;;;;;9.63;7.13;;;;;;;;;;5024353;28;20026;-67
2021/08/03 07:57:30;;;;;;;12.85;7.78;;;;;;;;;;5014230;28;20027;-65
2021/08/03 07:59:56;;;;;;;11.80;8.07;;;;;;;;;;4662636;28;9999725;-67
2021/08/03 08:02:21;;;;;;;11.02;8.00;;;;;;;;;;5020791;28;20044;-68
2021/08/03 08:04:47;;;;;;;16.27;8.73;;;;;;;;;;5038320;28;20033;-67
2021/08/03 08:07:13;;;;;;;13.25;8.68;;;;;;;;;;5036624;28;20025;-68
2021/08/03 08:09:38;;;;;;;17.58;9.55;;;;;;;;;;5035392;28;20654;-66
2021/08/03 08:12:04;;;;;;;10.77;7.35;;;;;;;;;;5015952;28;20048;-67
2021/08/03 08:14:31;;;;;;;12.38;7.97;;;;;;;;;;5018515;28;20087;-66
2021/08/03 08:16:57;;;;;;;8.73;6.43;;;;;;;;;;5032285;28;20030;-65
2021/08/03 08:19:23;;;;;;;6.50;5.72;;;;;;;;;;5028989;28;20440;-68
2021/08/03 08:21:48;;;;;;;7.57;5.20;;;;;;;;;;5028875;28;20036;-66
2021/08/03 08:24:14;;;;;;;8.15;5.30;;;;;;;;;;5016444;28;20111;-66
2021/08/03 08:26:39;;;;;;;9.50;5.78;;;;;;;;;;5035959;28;20059;-66
2021/08/03 08:29:05;;;;;;;7.95;5.70;;;;;;;;;;5036182;28;20028;-67
2021/08/03 08:31:30;;;;;;;5.50;4.22;;;;;;;;;;5033923;28;20033;-67
2021/08/03 08:33:55;;;;;;;4.90;4.20;;;;;;;;;;5017574;28;20059;-66
2021/08/03 08:36:21;;;;;;;6.80;4.20;;;;;;;;;;5036510;28;20160;-66
2021/08/03 08:38:46;;;;;;;5.95;3.90;;;;;;;;;;5035948;28;20025;-65
2021/08/03 08:41:12;;;;;;;5.53;3.38;;;;;;;;;;5019262;28;20033;-69
2021/08/03 08:43:39;;;;;;;5.00;3.58;;;;;;;;;;5036734;28;20025;-68
2021/08/03 08:46:05;;;;;;;3.95;2.78;;;;;;;;;;5035520;28;20112;-68
2021/08/03 08:48:32;;;;;;;4.53;2.40;;;;;;;;;;5018211;28;20052;-67
2021/08/03 08:50:58;;;;;;;4.60;2.75;;;;;;;;;;5019405;28;20268;-67
2021/08/03 08:53:26;;;;;;;3.87;2.70;;;;;;;;;;5035297;28;20041;-66
2021/08/03 08:55:52;;;;;;;4.25;2.95;;;;;;;;;;5033091;28;21270;-68
2021/08/03 08:58:17;;;;;;;4.47;2.72;;;;;;;;;;5034915;28;20041;-67
2021/08/03 09:00:43;;;;;;;4.03;2.85;;;;;;;;;;5036683;28;20027;-66
2021/08/03 09:03:09;;;;;;;6.03;2.60;;;;;;;;;;5037886;28;20071;-66
2021/08/03 09:05:34;;;;;;;3.33;2.70;;;;;;;;;;5016185;28;20079;-67
2021/08/03 09:08:02;;;;;;;3.70;2.60;;;;;;;;;;5035922;28;20401;-66
2021/08/03 09:10:40;;;;;;;2.47;2.10;;;;;;;;;;5035297;28;20566;-67
2021/08/03 09:13:14;;;;;;;3.72;2.08;;;;;;;;;;5037309;28;20017;-66
2021/08/03 09:15:45;;;;;;;4.57;2.40;;;;;;;;;;5017724;28;20032;-66
2021/08/03 09:18:25;;;;;;;3.30;2.30;;;;;;;;;;5035723;28;20062;-67
2021/08/03 09:20:50;;;;;;;3.72;2.33;;;;;;;;;;5034807;28;20055;-67
2021/08/03 09:23:16;;;;;;;5.10;2.50;;;;;;;;;;5036508;28;20482;-67
2021/08/03 09:25:53;;;;;;;2.72;2.10;;;;;;;;;;5036318;28;20024;-67
2021/08/03 09:28:19;;;;;;;3.45;2.17;;;;;;;;;;5036534;28;20033;-66
2021/08/03 09:30:44;;;;;;;3.63;2.05;;;;;;;;;;5017975;28;20052;-67
2021/08/03 09:33:20;;;;;;;3.30;1.83;;;;;;;;;;5037203;28;20029;-66
2021/08/03 09:36:02;;;;;;;2.58;2.20;;;;;;;;;;5036103;28;20461;-66
2021/08/03 09:38:27;;;;;;;2.85;2.00;;;;;;;;;;5037166;28;20021;-65
2021/08/03 09:41:07;;;;;;;4.53;2.20;;;;;;;;;;5019389;28;20028;-65
2021/08/03 09:43:34;;;;;;;3.10;2.30;;;;;;;;;;5017900;28;20033;-68
2021/08/03 09:46:01;;;;;;;2.97;2.35;;;;;;;;;;5018421;28;20079;-65
2021/08/03 09:48:31;;;;;;;3.10;2.10;;;;;;;;;;5035830;28;20037;-68
2021/08/03 09:51:10;;;;;;;3.47;2.00;;;;;;;;;;5032570;28;20025;-65
2021/08/03 09:53:44;;;;;;;3.65;2.10;;;;;;;;;;5028158;28;20064;-65
2021/08/03 09:56:13;;;;;;;4.53;2.90;;;;;;;;;;5027161;28;20140;-67
2021/08/03 09:58:53;;;;;;;6.63;4.35;;;;;;;;;;5031648;28;20441;-66
2021/08/03 10:01:24;;;;;;;3.47;1.80;;;;;;;;;;5021936;28;20021;-66
2021/08/03 10:03:52;;;;;;;3.35;2.13;;;;;;;;;;5031536;28;20025;-65
2021/08/03 10:06:18;;;;;;;2.60;1.90;;;;;;;;;;5040136;28;20029;-67
2021/08/03 10:08:48;;;;;;;3.40;2.17;;;;;;;;;;5006858;28;20033;-67
2021/08/03 10:11:15;;;;;;;2.40;1.90;;;;;;;;;;5030273;28;20759;-67
2021/08/03 10:13:42;;;;;;;1.50;0.90;;;;;;;;;;5026089;28;20027;-66
2021/08/03 10:16:07;;;;;;;;;;;;;;;;;;5024085;28;20037;-66
2021/08/03 10:18:33;;;;;;;1.03;0.93;;;;;;;;;;5024086;28;19917;-68
2021/08/03 10:21:00;;;;;;;1.45;0.95;;;;;;;;;;5012905;28;20026;-68
2021/08/03 10:23:32;;;;;;;1.13;0.77;;;;;;;;;;5006714;28;20036;-64
2021/08/03 10:25:58;;;;;;;0.90;0.70;;;;;;;;;;5022818;28;20057;-66
2021/08/03 10:28:30;;;;;;;1.38;0.90;;;;;;;;;;5018291;28;20458;-66
2021/08/03 10:30:56;;;;;;;0.85;0.80;;;;;;;;;;5030079;28;20116;-68
2021/08/03 10:33:57;;;;;;;1.77;0.90;;;;;;;;;;5031439;28;20026;-67
2021/08/03 10:36:38;;;;;;;1.33;0.80;;;;;;;;;;4970007;28;20046;-66
2021/08/03 10:39:16;;;;;;;1.30;0.90;;;;;;;;;;5020763;28;20025;-65
2021/08/03 10:42:00;;;;;;;1.20;1.05;;;;;;;;;;5014241;28;20021;-65
2021/08/03 10:44:58;;;;;;;1.40;0.90;;;;;;;;;;5013219;28;20190;-66
2021/08/03 10:47:39;;;;;;;0.80;0.80;;;;;;;;;;4994351;28;20442;-67
2021/08/03 10:50:07;;;;;;;0.93;0.70;;;;;;;;;;5021726;28;20022;-66
2021/08/03 10:52:54;;;;;;;1.23;0.80;;;;;;;;;;5023865;28;20589;-65
2021/08/03 10:55:38;;;;;;;0.90;0.80;;;;;;;;;;5011191;28;20040;-66
2021/08/03 10:58:09;;;;;;;1.25;0.90;;;;;;;;;;5008435;28;20029;-65
2021/08/03 11:00:47;;;;;;;1.05;0.80;;;;;;;;;;5020264;28;20025;-66
2021/08/03 11:03:34;;;;;;;1.23;0.90;;;;;;;;;;5016168;28;20037;-69
2021/08/03 11:06:06;;;;;;;1.80;0.70;;;;;;;;;;5029238;28;20058;-68
2021/08/03 11:08:35;;;;;;;1.75;0.60;;;;;;;;;;5033888;28;20134;-66
2021/08/03 11:11:22;;;;;;;0.77;0.60;;;;;;;;;;5024947;28;20033;-67
2021/08/03 11:13:49;;;;;;;;;;;;;;;;;;4988218;28;20052;-65
2021/08/03 11:16:20;;;;;;;2.65;0.85;;;;;;;;;;5017874;28;20420;-66
2021/08/03 11:18:50;;;;;;;1.33;0.93;;;;;;;;;;5019247;28;20066;-66
2021/08/03 11:21:20;;;;;;;0.63;0.63;;;;;;;;;;5026950;28;20029;-66
2021/08/03 11:23:57;;;;;;;1.17;0.70;;;;;;;;;;5021522;28;20049;-66
2021/08/03 11:26:34;;;;;;;0.73;0.60;;;;;;;;;;5030447;28;20111;-65
2021/08/03 11:29:04;;;;;;;0.68;0.55;;;;;;;;;;5018465;28;20030;-67
2021/08/03 11:31:37;;;;;;;0.85;0.60;;;;;;;;;;5018725;28;20104;-66
2021/08/03 11:34:03;;;;;;;0.90;0.70;;;;;;;;;;5032847;28;20164;-67
2021/08/03 11:36:28;;;;;;;0.75;0.70;;;;;;;;;;5033917;28;20466;-66
2021/08/03 11:38:53;;;;;;;1.08;0.70;;;;;;;;;;5005138;28;20033;-66
2021/08/03 11:41:19;;;;;;;1.30;0.77;;;;;;;;;;5002243;28;20120;-65
2021/08/03 11:43:44;;;;;;;1.48;0.68;;;;;;;;;;5034984;28;20033;-68
2021/08/03 11:46:10;;;;;;;0.57;0.50;;;;;;;;;;5027498;28;20033;-67
2021/08/03 11:48:35;;;;;;;0.70;0.60;;;;;;;;;;5027656;28;20041;-67
2021/08/03 11:51:01;;;;;;;0.80;0.60;;;;;;;;;;3991918;28;9999919;-68
2021/08/03 11:53:29;;;;;;;0.60;0.50;;;;;;;;;;5021870;28;20025;-68
2021/08/03 11:55:56;;;;;;;1.45;0.80;;;;;;;;;;5012757;28;20101;-65
2021/08/03 11:58:24;;;;;;;0.80;0.80;;;;;;;;;;5014831;28;20165;-67
2021/08/03 12:00:57;;;;;;;0.70;0.70;;;;;;;;;;5012996;28;20572;-67
2021/08/03 12:03:29;;;;;;;0.65;0.60;;;;;;;;;;5033962;28;20056;-65
2021/08/03 12:05:55;;;;;;;1.30;0.73;;;;;;;;;;5028476;28;20042;-66
2021/08/03 12:08:20;;;;;;;1.15;0.70;;;;;;;;;;5027898;28;20040;-66
2021/08/03 12:10:52;;;;;;;1.10;0.60;;;;;;;;;;5004326;28;20032;-68
2021/08/03 12:13:32;;;;;;;0.70;0.65;;;;;;;;;;5023048;28;20048;-65
2021/08/03 12:15:59;;;;;;;0.90;0.60;;;;;;;;;;5003242;28;20401;-64
2021/08/03 12:18:33;;;;;;;;;;;;;;;;;;5022851;28;20454;-65
2021/08/03 12:20:58;;;;;;;0.85;0.70;;;;;;;;;;5022879;28;19913;-66
2021/08/03 12:23:34;;;;;;;0.65;0.55;;;;;;;;;;5014674;28;20045;-66
2021/08/03 12:26:03;;;;;;;0.80;0.60;;;;;;;;;;5012774;28;20026;-65
2021/08/03 12:28:30;;;;;;;1.30;0.85;;;;;;;;;;5005834;28;20027;-64
2021/08/03 12:30:56;;;;;;;0.73;0.65;;;;;;;;;;5033748;28;20072;-68
2021/08/03 12:33:32;;;;;;;1.08;0.65;;;;;;;;;;5032959;28;20033;-67
2021/08/03 12:36:08;;;;;;;;;;;;;;;;;;5034191;28;20443;-66
2021/08/03 12:38:35;;;;;;;1.00;0.60;;;;;;;;;;5032507;28;20610;-65
2021/08/03 12:41:18;;;;;;;1.83;0.80;;;;;;;;;;5033509;28;20051;-66
2021/08/03 12:43:44;;;;;;;1.00;0.68;;;;;;;;;;5033208;28;20037;-65
2021/08/03 12:46:09;;;;;;;1.15;0.75;;;;;;;;;;5034098;28;20026;-64
2021/08/03 12:48:37;;;;;;;0.80;0.60;;;;;;;;;;5034327;28;20052;-63
2021/08/03 12:51:03;;;;;;;0.85;0.50;;;;;;;;;;5033937;28;20033;-67
2021/08/03 12:53:31;;;;;;;0.80;0.65;;;;;;;;;;5033890;28;20032;-64
2021/08/03 12:56:15;;;;;;;0.60;0.60;;;;;;;;;;5014979;28;20461;-63
2021/08/03 12:58:45;;;;;;;2.20;0.60;;;;;;;;;;5034270;28;20021;-66
2021/08/03 13:01:11;;;;;;;1.35;0.60;;;;;;;;;;5028032;28;20018;-67
2021/08/03 13:03:37;;;;;;;0.60;0.60;;;;;;;;;;4998412;28;20045;-66
2021/08/03 13:06:03;;;;;;;0.85;0.68;;;;;;;;;;5023332;28;20506;-66
2021/08/03 13:08:29;;;;;;;0.60;0.60;;;;;;;;;;5022418;28;20018;-63
2021/08/03 13:10:54;;;;;;;0.50;0.50;;;;;;;;;;5008670;28;20547;-65
2021/08/03 13:13:19;;;;;;;0.70;0.63;;;;;;;;;;5022592;28;20084;-66
2021/08/03 13:15:45;;;;;;;0.70;0.60;;;;;;;;;;5013344;28;20041;-67
2021/08/03 13:18:10;;;;;;;1.02;0.60;;;;;;;;;;5023192;28;20022;-65
2021/08/03 13:20:36;;;;;;;0.70;0.60;;;;;;;;;;5015598;28;20030;-66
2021/08/03 13:23:01;;;;;;;0.60;0.60;;;;;;;;;;5017977;28;20065;-67
2021/08/03 13:25:27;;;;;;;0.50;0.40;;;;;;;;;;5022699;28;20025;-65
2021/08/03 13:27:52;;;;;;;0.50;0.47;;;;;;;;;;5012621;28;20394;-67
2021/08/03 13:30:17;;;;;;;0.70;0.60;;;;;;;;;;5022294;28;20040;-65
2021/08/03 13:32:43;;;;;;;2.08;0.50;;;;;;;;;;5014598;28;21470;-65
2021/08/03 13:35:09;;;;;;;0.70;0.70;;;;;;;;;;5008773;28;20156;-67
2021/08/03 13:37:35;;;;;;;0.63;0.63;;;;;;;;;;5021562;28;20078;-66
2021/08/03 13:40:01;;;;;;;0.75;0.50;;;;;;;;;;5021787;28;20030;-64
2021/08/03 13:42:26;;;;;;;0.63;0.50;;;;;;;;;;5013150;28;20033;-66
2021/08/03 13:44:52;;;;;;;0.70;0.68;;;;;;;;;;5012882;28;20026;-66
2021/08/03 13:47:18;;;;;;;1.52;0.80;;;;;;;;;;5012527;28;20033;-66
2021/08/03 13:49:45;;;;;;;0.82;0.70;;;;;;;;;;4995552;28;20121;-64
2021/08/03 13:52:12;;;;;;;2.13;0.60;;;;;;;;;;5015853;28;20029;-65
2021/08/03 13:54:38;;;;;;;1.33;0.57;;;;;;;;;;5031471;28;20362;-63
2021/08/03 13:57:04;;;;;;;0.47;0.47;;;;;;;;;;5031017;28;20103;-66
2021/08/03 13:59:30;;;;;;;1.05;0.88;;;;;;;;;;5019756;28;20088;-65
2021/08/03 14:01:55;;;;;;;1.45;0.50;;;;;;;;;;5002858;28;20041;-64
2021/08/03 14:04:21;;;;;;;0.77;0.70;;;;;;;;;;5005479;28;20028;-67
2021/08/03 14:06:46;;;;;;;0.75;0.50;;;;;;;;;;5026868;28;20044;-65
2021/08/03 14:09:11;;;;;;;0.50;0.50;;;;;;;;;;5010967;28;20060;-65
2021/08/03 14:11:37;;;;;;;1.45;0.52;;;;;;;;;;5031948;28;20125;-66
2021/08/03 14:14:04;;;;;;;3.03;0.63;;;;;;;;;;5029984;28;20065;-66
2021/08/03 14:16:29;;;;;;;0.70;0.60;;;;;;;;;;5011250;28;20096;-67
2021/08/03 14:18:54;;;;;;;1.02;0.60;;;;;;;;;;4994868;28;20113;-66
2021/08/03 14:21:20;;;;;;;1.38;0.80;;;;;;;;;;4993968;28;20014;-67
2021/08/03 14:23:45;;;;;;;1.70;0.68;;;;;;;;;;5028630;28;20440;-67
2021/08/03 14:26:11;;;;;;;0.50;0.50;;;;;;;;;;5030448;28;20120;-65
2021/08/03 14:28:36;;;;;;;0.73;0.60;;;;;;;;;;5032505;28;20032;-65
2021/08/03 14:31:02;;;;;;;0.82;0.70;;;;;;;;;;5031381;28;20034;-65
2021/08/03 14:33:27;;;;;;;0.70;0.55;;;;;;;;;;5033351;28;20041;-65
2021/08/03 14:35:53;;;;;;;1.67;0.90;;;;;;;;;;5032022;28;20122;-67
2021/08/03 14:38:18;;;;;;;1.08;0.70;;;;;;;;;;5031865;28;20030;-64
2021/08/03 14:40:44;;;;;;;0.80;0.65;;;;;;;;;;5028088;28;20029;-65
2021/08/03 14:43:09;;;;;;;0.88;0.77;;;;;;;;;;5027881;28;20082;-66
2021/08/03 14:45:34;;;;;;;0.82;0.70;;;;;;;;;;5025129;28;20040;-68
2021/08/03 14:48:00;;;;;;;1.13;0.60;;;;;;;;;;5031713;28;20026;-65